Accueil
METAR-TAF:

METAR-TAF

Aéroports :

Tortola, Îles Vierges britanniques

latitude: 18-27N, longitude: 064-32W, altitude: 4 m

Observation

Le bulletin a été fait il y a 1 heure et 31 minutes, à 19:00 UTC
Vent 5 kt de sud
Température 30°C
Humidité 55%
Pression 1012 hPa
Visibilité: 16.1 km
Quelques nuages à une hauteur de 2100 ft

METAR: TUPJ 031900Z 19005KT 10SM FEW021 30/20 A2989 RMK Q1012 VIS 16KM

Heure: 16:31 (20:31 UTC)

Prévision

Le bulletin a été fait il y a 9 heures et 31 minutes, à 11:00 UTC
Prévision valable du 03 à 12 UTC au 04 à 12 UTC
Vent 4 kt de sud
Visibilité 10 km ou plus
Quelques nuages à une hauteur de 2000 ft

TAF: TUPJ 031100Z 0312/0412 17004KT 9999 FEW020

Observations et prévisions météorologiques de plus de 4000 aéroports (messages METAR et TAF).

Les stations disponibles sont représentées par des disques jaunes et rouges sur la carte.

Passer la souris dessus pour voir le nom de la station.

Cliquer dessus pour voir les observations et prévisions météorologiques.

Pour changer de carte: cliquez sur les boutons verts avec une croix noire pour zoomer, sur le bouton vert avec un tiret pour effectuer un zoom arrière, ou sur les flèches vertes pour les cartes adjacentes.


METAR-TAF: